Time;durP1;ratioP1;P1;durP2;ratioP2;P2;SDS_P1;SDS_P2;PMS_P1;PMS_P2;Temp;Humidity;BMP_temperature;BMP_pressure;BME280_temperature;BME280_humidity;BME280_pressure;Samples;Min_cycle;Max_cycle;Signal;HPM_P1;HPM_P2
2021/03/19 00:00:28;;;;;;;5.12;4.62;;;;;;;1.07;85.72;98902.50;1710978;83;21578;-61
2021/03/19 00:02:56;;;;;;;5.42;4.22;;;;;;;1.07;85.80;98903.34;1710981;83;21534;-61
2021/03/19 00:05:25;;;;;;;4.45;4.05;;;;;;;1.07;85.73;98899.50;1710964;83;21098;-61
2021/03/19 00:07:57;;;;;;;4.08;3.67;;;;;;;1.09;85.78;98903.33;1723889;79;21265;-61
2021/03/19 00:10:30;;;;;;;4.17;3.77;;;;;;;1.11;85.75;98895.20;1822138;78;21370;-61
2021/03/19 00:13:03;;;;;;;4.05;3.65;;;;;;;1.11;85.76;98893.91;1806370;79;21135;-61
2021/03/19 00:15:32;;;;;;;4.47;3.90;;;;;;;1.09;85.67;98896.49;1822341;78;21475;-61
2021/03/19 00:18:01;;;;;;;5.53;4.12;;;;;;;1.06;85.75;98889.28;1806403;79;21131;-61
2021/03/19 00:20:35;;;;;;;4.62;4.10;;;;;;;1.05;85.82;98896.11;1822166;78;21111;-61
2021/03/19 00:23:04;;;;;;;3.90;3.50;;;;;;;1.06;85.89;98893.97;1822270;78;21326;-61
2021/03/19 00:25:32;;;;;;;4.12;3.72;;;;;;;1.06;85.96;98897.81;1806364;79;21111;-61
2021/03/19 00:28:00;;;;;;;5.62;3.90;;;;;;;1.05;86.02;98896.11;1822108;78;20992;-61
2021/03/19 00:30:29;;;;;;;4.85;4.35;;;;;;;1.02;86.05;98886.75;1822219;78;21547;-61
2021/03/19 00:32:56;;;;;;;4.33;3.92;;;;;;;1.02;86.15;98894.44;1806466;79;21037;-62
2021/03/19 00:35:24;;;;;;;5.08;3.85;;;;;;;1.03;86.11;98891.01;1822087;78;21248;-61
2021/03/19 00:37:52;;;;;;;4.83;4.08;;;;;;;1.06;86.12;98895.25;1806336;79;21068;-61
2021/03/19 00:40:20;;;;;;;4.78;4.25;;;;;;;1.06;86.19;98893.97;1822084;78;21611;-61
2021/03/19 00:42:49;;;;;;;6.22;4.75;;;;;;;1.08;86.25;98898.64;1806341;79;21147;-61
2021/03/19 00:45:17;;;;;;;5.25;4.58;;;;;;;1.10;86.29;98893.50;1822149;78;21048;-61
2021/03/19 00:47:46;;;;;;;4.40;4.00;;;;;;;1.12;86.27;98888.78;1805998;79;21365;-62
2021/03/19 00:50:16;;;;;;;4.50;4.10;;;;;;;1.13;86.29;98893.47;1822120;78;21080;-61
2021/03/19 00:52:43;;;;;;;5.20;3.98;;;;;;;1.14;86.36;98889.61;1822136;78;21052;-61
2021/03/19 00:55:14;;;;;;;4.90;4.28;;;;;;;1.14;86.46;98894.73;1806352;79;21131;-61
2021/03/19 00:57:41;;;;;;;4.70;4.30;;;;;;;1.16;86.42;98887.03;1822130;78;21380;-61
2021/03/19 01:00:12;;;;;;;5.10;4.60;;;;;;;1.15;86.57;98882.77;1806436;79;22188;-63
2021/03/19 01:02:40;;;;;;;4.75;4.35;;;;;;;1.17;86.56;98887.02;1754691;81;21158;-61
2021/03/19 01:05:21;;;;;;;5.50;5.00;;;;;;;1.17;86.56;98892.13;1754838;81;21155;-61
2021/03/19 01:07:49;;;;;;;6.67;5.15;;;;;;;1.17;86.69;98887.02;1754464;81;21189;-61
2021/03/19 01:10:33;;;;;;;6.87;5.50;;;;;;;1.17;86.83;98890.00;1754884;81;21543;-61
2021/03/19 01:13:01;;;;;;;8.28;6.28;;;;;;;1.17;86.89;98879.33;1754252;81;21392;-61
2021/03/19 01:15:29;;;;;;;9.10;6.28;;;;;;;1.17;86.86;98877.20;1754788;81;21154;-61
2021/03/19 01:17:58;;;;;;;8.65;5.72;;;;;;;1.16;86.80;98876.78;1754825;81;21252;-61
2021/03/19 01:20:27;;;;;;;6.87;5.67;;;;;;;1.16;86.76;98879.34;1754824;81;21107;-61
2021/03/19 01:22:55;;;;;;;7.47;6.50;;;;;;;1.13;86.87;98883.22;1754875;81;21083;-61
2021/03/19 01:25:24;;;;;;;7.75;6.33;;;;;;;1.13;86.95;98881.51;1754822;81;21214;-61
2021/03/19 01:27:51;;;;;;;8.43;5.95;;;;;;;1.13;87.03;98882.79;1754746;81;21157;-61
2021/03/19 01:30:23;;;;;;;6.72;6.03;;;;;;;1.14;87.05;98879.80;1754832;81;21174;-61
2021/03/19 01:32:50;;;;;;;6.62;4.92;;;;;;;1.15;86.94;98884.90;1764617;78;21175;-61
2021/03/19 01:35:21;;;;;;;5.55;4.95;;;;;;;1.16;86.86;98885.75;1806518;79;21084;-61
2021/03/19 01:37:50;;;;;;;6.37;5.78;;;;;;;1.13;86.80;98883.22;1822213;78;21208;-62
2021/03/19 01:40:21;;;;;;;5.72;4.80;;;;;;;1.10;86.95;98886.66;1806405;79;21080;-61
2021/03/19 01:43:29;;;;;;;5.28;4.80;;;;;;;1.11;87.03;98896.05;1822361;78;21107;-61
2021/03/19 01:46:53;;;;;;;5.95;4.62;;;;;;;1.10;86.92;98895.63;1806497;79;21492;-61
2021/03/19 01:49:58;;;;;;;;;;;;;;;1.07;86.83;98897.38;1828005;78;21551;-61
2021/03/19 01:53:22;;;;;;;5.33;4.78;;;;;;;1.03;87.01;98900.40;1825423;78;21479;-61
2021/03/19 01:56:46;;;;;;;6.95;5.65;;;;;;;1.00;87.02;98901.28;1812540;78;21112;-62
2021/03/19 02:00:10;;;;;;;6.50;5.87;;;;;;;0.99;87.16;98902.18;1825542;78;21051;-60
2021/03/19 02:03:34;;;;;;;7.00;5.47;;;;;;;0.99;87.00;98906.45;1812600;78;21150;-60
2021/03/19 02:06:39;;;;;;;;;;;;;;;0.95;86.92;98900.95;1828135;78;21055;-60
2021/03/19 02:10:02;;;;;;;5.83;5.22;;;;;;;0.94;87.07;98907.78;1825425;78;21200;-61
2021/03/19 02:13:26;;;;;;;5.83;5.20;;;;;;;0.91;87.15;98906.53;1812531;79;21115;-61
2021/03/19 02:16:50;;;;;;;6.70;5.22;;;;;;;0.90;87.22;98917.64;1825573;78;21463;-61
2021/03/19 02:20:15;;;;;;;5.00;4.50;;;;;;;0.90;87.27;98913.80;1812399;79;21135;-61
2021/03/19 02:23:38;;;;;;;5.90;5.25;;;;;;;0.90;87.39;98916.36;1825539;78;21068;-61
2021/03/19 02:26:44;;;;;;;;;;;;;;;0.89;87.45;98915.09;1815128;79;21199;-61
2021/03/19 02:30:08;;;;;;;5.25;4.65;;;;;;;0.83;87.66;98919.84;1825386;78;20495;-61
2021/03/19 02:32:43;;;;;;;4.90;4.40;;;;;;;0.78;87.83;98918.22;1812476;79;21036;-61
2021/03/19 02:35:21;;;;;;;5.03;4.53;;;;;;;0.74;88.01;98919.95;1825380;78;21119;-61
2021/03/19 02:37:48;;;;;;;5.60;4.72;;;;;;;0.71;88.24;98921.27;1825454;78;21103;-61
2021/03/19 02:40:21;;;;;;;6.55;5.00;;;;;;;0.71;88.41;98919.14;1825395;78;21570;-62
2021/03/19 02:42:48;;;;;;;6.20;4.72;;;;;;;0.71;88.48;98921.27;1812388;78;21088;-61
2021/03/19 02:45:21;;;;;;;5.75;5.15;;;;;;;0.70;88.61;98918.29;1825372;78;21048;-61
2021/03/19 02:47:48;;;;;;;4.60;4.15;;;;;;;0.70;88.60;98923.41;1824588;78;21646;-61
2021/03/19 02:50:17;;;;;;;5.50;4.42;;;;;;;0.71;88.78;98921.70;1796332;79;21059;-61
2021/03/19 02:52:44;;;;;;;6.37;5.20;;;;;;;0.72;88.77;98925.95;1810966;79;21204;-62
2021/03/19 02:55:15;;;;;;;5.45;4.92;;;;;;;0.70;88.85;98924.69;1796215;79;21481;-61
2021/03/19 02:57:42;;;;;;;4.33;3.92;;;;;;;0.72;88.84;98922.96;1811024;79;21052;-61
2021/03/19 03:00:15;;;;;;;4.47;3.92;;;;;;;0.71;88.70;98918.70;1796275;79;21589;-61
2021/03/19 03:02:43;;;;;;;5.37;4.87;;;;;;;0.72;88.64;98919.55;1811245;79;21481;-61
2021/03/19 03:05:12;;;;;;;4.92;4.47;;;;;;;0.73;88.83;98927.65;1796363;79;21262;-62
2021/03/19 03:07:40;;;;;;;5.10;4.60;;;;;;;0.74;88.81;98926.36;1811023;79;21146;-62
2021/03/19 03:10:10;;;;;;;5.50;4.67;;;;;;;0.73;88.69;98923.38;1796338;79;21590;-61
2021/03/19 03:12:38;;;;;;;5.35;4.42;;;;;;;0.71;88.65;98923.83;1810994;79;21138;-61
2021/03/19 03:15:10;;;;;;;5.28;4.60;;;;;;;0.73;88.70;98923.81;1796299;79;21046;-61
2021/03/19 03:17:39;;;;;;;5.70;4.85;;;;;;;0.76;88.77;98926.34;1811125;79;21380;-62
2021/03/19 03:20:10;;;;;;;5.80;4.92;;;;;;;0.77;88.57;98926.76;1796185;79;21141;-62
2021/03/19 03:22:41;;;;;;;5.25;4.55;;;;;;;0.74;88.36;98921.67;1811122;79;21123;-61
2021/03/19 03:25:13;;;;;;;5.65;4.42;;;;;;;0.72;88.23;98922.11;1796251;79;21141;-61
2021/03/19 03:27:41;;;;;;;5.03;4.40;;;;;;;0.71;88.18;98925.54;1811233;79;21108;-61
2021/03/19 03:30:21;;;;;;;4.92;4.22;;;;;;;0.67;87.90;98924.72;1796223;79;21207;-62
2021/03/19 03:32:57;;;;;;;4.42;4.03;;;;;;;0.65;87.82;98931.12;1890080;76;22578;-61
2021/03/19 03:35:25;;;;;;;5.37;4.87;;;;;;;0.55;87.92;98925.70;1860987;77;21037;-61
2021/03/19 03:37:55;;;;;;;5.47;4.25;;;;;;;0.52;88.04;98931.27;1860349;77;21196;-61
2021/03/19 03:40:31;;;;;;;5.08;4.53;;;;;;;0.49;88.09;98928.31;1869452;76;20957;-61
2021/03/19 03:43:00;;;;;;;4.33;3.92;;;;;;;0.47;88.07;98932.59;1807143;78;21147;-61
2021/03/19 03:45:27;;;;;;;5.00;4.50;;;;;;;0.44;88.03;98928.78;1822876;78;21058;-61
2021/03/19 03:47:55;;;;;;;4.78;4.25;;;;;;;0.42;88.01;98927.09;1807257;79;21036;-61
2021/03/19 03:50:27;;;;;;;6.12;3.92;;;;;;;0.37;87.92;98931.42;1822905;78;21380;-61
2021/03/19 03:52:56;;;;;;;4.80;4.30;;;;;;;0.34;88.07;98934.42;1805305;79;21515;-61
2021/03/19 03:55:24;;;;;;;4.30;3.90;;;;;;;0.34;88.17;98935.70;1822870;78;21064;-61
2021/03/19 03:57:52;;;;;;;5.58;4.15;;;;;;;0.36;88.22;98937.41;1807123;79;21138;-61
2021/03/19 04:00:23;;;;;;;4.37;3.98;;;;;;;0.37;88.14;98938.67;1822890;78;21107;-61
2021/03/19 04:02:52;;;;;;;5.80;5.17;;;;;;;0.34;87.98;98934.42;1822992;78;22290;-61
2021/03/19 04:05:24;;;;;;;4.80;4.30;;;;;;;0.34;87.98;98945.94;1807072;79;21131;-61
2021/03/19 04:07:52;;;;;;;5.40;4.90;;;;;;;0.34;87.99;98943.81;1822825;78;21550;-62
2021/03/19 04:10:20;;;;;;;4.92;4.42;;;;;;;0.34;88.20;98944.66;1807072;79;21151;-61
2021/03/19 04:12:48;;;;;;;5.33;4.80;;;;;;;0.36;88.09;98946.36;1822818;78;21060;-61
2021/03/19 04:15:16;;;;;;;4.60;4.20;;;;;;;0.38;87.94;98949.33;1807189;78;21399;-61
2021/03/19 04:17:46;;;;;;;4.22;3.83;;;;;;;0.38;87.86;98945.92;1822855;78;21491;-61
2021/03/19 04:20:16;;;;;;;4.20;3.80;;;;;;;0.37;87.81;98948.91;1822868;78;21036;-62
2021/03/19 04:22:44;;;;;;;4.70;4.05;;;;;;;0.37;87.81;98952.74;1807177;79;21063;-61
2021/03/19 04:25:13;;;;;;;4.70;4.25;;;;;;;0.36;87.79;98956.59;1822847;78;21552;-61
2021/03/19 04:27:47;;;;;;;4.90;3.70;;;;;;;0.34;87.72;98958.73;1807166;79;22285;-61
2021/03/19 04:30:27;;;;;;;4.25;3.85;;;;;;;0.34;87.72;98954.89;1822548;78;21071;-61
2021/03/19 04:32:58;;;;;;;4.35;3.77;;;;;;;0.34;87.66;98952.77;1806900;79;21084;-61
2021/03/19 04:35:28;;;;;;;4.28;3.87;;;;;;;0.32;87.75;98955.77;1822866;78;21044;-61
2021/03/19 04:37:59;;;;;;;4.90;4.40;;;;;;;0.31;87.84;98956.20;1807099;79;21075;-61
2021/03/19 04:40:27;;;;;;;4.75;4.35;;;;;;;0.32;87.78;98954.05;1822916;78;22363;-61
2021/03/19 04:42:55;;;;;;;4.67;4.17;;;;;;;0.31;87.50;98956.20;1806795;79;21088;-61
2021/03/19 04:45:23;;;;;;;4.60;3.98;;;;;;;0.28;87.54;98957.49;1822192;78;21614;-61
2021/03/19 04:47:54;;;;;;;4.90;4.37;;;;;;;0.28;87.68;98958.77;1806569;79;21567;-61
2021/03/19 04:50:24;;;;;;;4.75;4.35;;;;;;;0.28;87.49;98956.22;1822293;78;21104;-61
2021/03/19 04:52:51;;;;;;;5.40;4.40;;;;;;;0.28;87.47;98965.59;1806482;79;21368;-61
2021/03/19 04:55:19;;;;;;;4.75;4.25;;;;;;;0.27;87.48;98958.35;1822283;78;21157;-61
2021/03/19 04:57:46;;;;;;;4.25;3.85;;;;;;;0.28;87.57;98961.76;1806438;79;21068;-61
2021/03/19 05:00:15;;;;;;;4.92;4.42;;;;;;;0.28;87.63;98960.48;1822224;78;21146;-61
2021/03/19 05:02:45;;;;;;;5.35;4.55;;;;;;;0.28;87.62;98963.04;1806523;79;21123;-61
2021/03/19 05:05:18;;;;;;;4.65;4.12;;;;;;;0.28;87.70;98960.48;1822198;78;21468;-61
2021/03/19 05:07:46;;;;;;;4.03;3.62;;;;;;;0.30;87.79;98959.61;1806702;79;21491;-61
2021/03/19 05:10:15;;;;;;;4.90;4.45;;;;;;;0.33;88.05;98967.69;1822130;78;21094;-62
2021/03/19 05:12:43;;;;;;;5.65;4.15;;;;;;;0.38;88.03;98965.10;1806440;79;21134;-62
2021/03/19 05:15:12;;;;;;;4.87;4.37;;;;;;;0.42;87.94;98958.64;1822256;78;21131;-62
2021/03/19 05:17:39;;;;;;;5.00;4.25;;;;;;;0.47;87.80;98967.13;1806475;79;21387;-61
2021/03/19 05:20:11;;;;;;;4.37;3.83;;;;;;;0.50;87.13;98970.95;1822111;78;21064;-61
2021/03/19 05:22:38;;;;;;;5.58;4.10;;;;;;;0.50;86.91;98970.09;1822327;78;21027;-62
2021/03/19 05:25:11;;;;;;;4.45;4.00;;;;;;;0.49;86.60;98974.37;1806541;79;21591;-62
2021/03/19 05:27:39;;;;;;;4.75;4.05;;;;;;;0.47;86.61;98974.81;1806512;79;21159;-62
2021/03/19 05:30:09;;;;;;;4.97;4.50;;;;;;;0.45;86.65;98979.09;1822173;78;21204;-62
2021/03/19 05:32:38;;;;;;;4.17;3.72;;;;;;;0.45;86.67;98985.91;1806342;79;21488;-62
2021/03/19 05:35:08;;;;;;;5.28;4.78;;;;;;;0.46;86.51;98982.06;1822195;78;21052;-62
2021/03/19 05:37:36;;;;;;;5.62;4.75;;;;;;;0.43;86.60;98985.92;1822194;78;21167;-62
2021/03/19 05:40:07;;;;;;;5.42;4.90;;;;;;;0.43;86.81;98985.92;1806536;79;21095;-62
2021/03/19 05:42:36;;;;;;;4.60;4.20;;;;;;;0.45;87.03;98991.03;1822240;78;21452;-62
2021/03/19 05:45:29;;;;;;;5.12;4.35;;;;;;;0.45;86.32;98991.88;1806422;79;21104;-62
2021/03/19 05:47:57;;;;;;;5.33;4.83;;;;;;;0.43;86.15;98991.04;1792677;78;21528;-62
2021/03/19 05:50:33;;;;;;;6.00;4.72;;;;;;;0.43;86.39;98997.86;1822201;78;21047;-62
2021/03/19 05:53:18;;;;;;;5.10;4.60;;;;;;;0.46;86.48;99000.41;1822182;78;21538;-62
2021/03/19 05:55:46;;;;;;;5.50;4.92;;;;;;;0.50;86.41;99002.08;1806441;79;22053;-61
2021/03/19 05:58:27;;;;;;;5.83;5.12;;;;;;;0.55;86.00;99001.19;1822025;78;21079;-61
2021/03/19 06:00:56;;;;;;;6.00;5.40;;;;;;;0.59;85.88;99005.86;1792441;78;21059;-62
2021/03/19 06:03:25;;;;;;;6.60;4.42;;;;;;;0.64;86.02;99005.36;1806378;79;21072;-62
2021/03/19 06:06:06;;;;;;;6.87;5.72;;;;;;;0.67;85.75;99011.73;1822166;78;21118;-61
2021/03/19 06:08:41;;;;;;;6.75;5.72;;;;;;;0.71;85.76;99010.00;1806365;79;21365;-62
2021/03/19 06:11:24;;;;;;;6.70;4.85;;;;;;;0.77;85.75;99009.95;1806177;79;21091;-61
2021/03/19 06:14:02;;;;;;;5.28;4.78;;;;;;;0.82;85.36;99012.86;1821724;78;21114;-63
2021/03/19 06:16:44;;;;;;;5.70;4.92;;;;;;;0.87;85.38;99021.35;1822134;78;21107;-62
2021/03/19 06:19:43;;;;;;;5.28;4.78;;;;;;;0.91;84.94;99019.61;1806191;79;21135;-62
2021/03/19 06:22:21;;;;;;;5.78;4.97;;;;;;;0.93;84.36;99023.86;1821749;78;21342;-61
2021/03/19 06:25:00;;;;;;;5.33;4.83;;;;;;;0.94;84.34;99020.44;1802484;79;21123;-65
2021/03/19 06:27:39;;;;;;;5.30;4.80;;;;;;;1.01;84.42;99023.77;1792738;78;21187;-62
2021/03/19 06:30:12;;;;;;;5.25;4.75;;;;;;;1.07;83.92;99028.84;1789489;80;21067;-63
2021/03/19 06:32:40;;;;;;;5.40;4.87;;;;;;;1.07;83.71;99027.55;1694312;84;21146;-61
2021/03/19 06:35:20;;;;;;;5.20;4.70;;;;;;;1.10;83.71;99027.52;1694060;84;21214;-61
2021/03/19 06:37:50;;;;;;;5.55;4.90;;;;;;;1.15;83.58;99028.34;1694285;84;21127;-61
2021/03/19 06:40:37;;;;;;;6.62;5.58;;;;;;;1.23;83.54;99021.83;1694169;84;21250;-61
2021/03/19 06:43:19;;;;;;;5.00;4.50;;;;;;;1.32;83.59;99020.45;1694310;84;21147;-63
2021/03/19 06:45:48;;;;;;;6.05;5.12;;;;;;;1.42;83.41;99029.72;1671062;84;21111;-62
2021/03/19 06:48:36;;;;;;;5.33;4.83;;;;;;;1.50;83.00;99025.79;1671052;84;21608;-64
2021/03/19 06:51:10;;;;;;;6.80;4.45;;;;;;;1.57;82.21;99032.55;1694122;84;21634;-60
2021/03/19 06:53:38;;;;;;;5.75;4.25;;;;;;;1.59;80.96;99029.11;1694218;84;21083;-62
2021/03/19 06:56:18;;;;;;;4.40;3.90;;;;;;;1.59;80.57;99026.55;1694173;84;21119;-63
2021/03/19 06:58:48;;;;;;;4.62;4.15;;;;;;;1.58;80.08;99033.81;1694241;84;21153;-62
2021/03/19 07:01:38;;;;;;;5.45;4.25;;;;;;;1.60;79.65;99027.39;1694097;84;21222;-62
2021/03/19 07:04:34;;;;;;;4.62;4.12;;;;;;;1.60;79.37;99029.95;1755895;80;21499;-61
2021/03/19 07:07:31;;;;;;;4.62;4.22;;;;;;;1.65;79.76;99028.16;1789600;80;21177;-62
2021/03/19 07:10:47;;;;;;;4.00;3.55;;;;;;;1.75;78.95;99031.47;1791431;78;21621;-64
2021/03/19 07:13:55;;;;;;;4.55;3.92;;;;;;;1.81;77.96;99042.91;1789634;80;21048;-62
2021/03/19 07:16:56;;;;;;;4.95;4.05;;;;;;;1.82;77.99;99042.88;1788293;80;21383;-63
2021/03/19 07:19:32;;;;;;;5.50;4.70;;;;;;;1.89;77.79;99042.38;1766650;80;21082;-61
2021/03/19 07:22:05;;;;;;;4.50;4.10;;;;;;;1.94;77.20;99035.05;1735116;80;21122;-61
2021/03/19 07:28:39;;;;;;;6.40;4.33;;;;;;;2.10;76.75;99045.08;1789734;80;21091;-63
2021/03/19 07:32:00;;;;;;;4.47;3.67;;;;;;;2.24;76.46;99056.83;1789648;80;21371;-64
2021/03/19 07:34:51;;;;;;;5.47;4.97;;;;;;;2.28;75.85;99052.08;1789640;80;21079;-62
2021/03/19 07:38:20;;;;;;;5.05;4.55;;;;;;;2.28;75.54;99045.66;1784816;80;21149;-63
2021/03/19 07:41:42;;;;;;;5.00;4.12;;;;;;;2.34;75.29;99048.58;1789793;80;21037;-62
2021/03/19 07:44:39;;;;;;;4.47;4.08;;;;;;;2.43;75.30;99052.27;1789642;79;21582;-63
2021/03/19 07:47:34;;;;;;;4.08;3.67;;;;;;;2.52;74.41;99049.58;1789382;80;21445;-63
2021/03/19 07:50:31;;;;;;;5.87;3.85;;;;;;;2.55;73.69;99043.55;1788563;80;21497;-64
2021/03/19 07:53:19;;;;;;;4.00;3.60;;;;;;;2.54;73.05;99047.84;1789575;80;21268;-65
2021/03/19 07:56:50;;;;;;;4.90;3.65;;;;;;;2.51;73.25;99040.61;1786764;80;21606;-63
2021/03/19 07:59:35;;;;;;;4.17;3.62;;;;;;;2.54;73.29;99042.70;1789648;80;21134;-61
2021/03/19 08:02:30;;;;;;;8.43;7.83;;;;;;;2.54;72.36;99046.55;1789689;80;21362;-62
2021/03/19 08:05:16;;;;;;;4.33;3.92;;;;;;;2.52;72.18;99038.03;1758829;80;21082;-62
2021/03/19 08:08:16;;;;;;;4.08;3.72;;;;;;;2.57;72.55;99040.53;1789741;79;21638;-62
2021/03/19 08:11:01;;;;;;;4.97;4.53;;;;;;;2.65;72.46;99036.94;1789634;80;21076;-63
2021/03/19 08:14:10;;;;;;;4.08;3.67;;;;;;;2.75;72.61;99049.20;1789584;80;21095;-63
2021/03/19 08:16:56;;;;;;;4.12;3.75;;;;;;;2.83;72.22;99033.65;1789482;80;21638;-63
2021/03/19 08:19:38;;;;;;;4.12;3.65;;;;;;;2.92;72.09;99038.20;1789590;80;21095;-63
2021/03/19 08:22:30;;;;;;;4.30;3.90;;;;;;;3.07;71.59;99040.49;1789551;80;21182;-62
2021/03/19 08:25:13;;;;;;;5.08;3.90;;;;;;;3.17;70.48;99046.77;1789883;80;21055;-62
2021/03/19 08:28:00;;;;;;;4.40;4.00;;;;;;;3.20;69.70;99049.28;1789963;80;21110;-62
2021/03/19 08:30:46;;;;;;;5.10;4.28;;;;;;;3.23;69.71;99045.34;1791043;78;21139;-62
2021/03/19 08:33:38;;;;;;;4.22;3.83;;;;;;;3.26;69.67;99053.00;1794545;79;21055;-63
2021/03/19 08:36:46;;;;;;;3.90;3.12;;;;;;;3.29;68.84;99046.52;1793949;79;21071;-63
2021/03/19 08:39:42;;;;;;;3.25;2.95;;;;;;;3.29;68.20;99044.80;1798917;79;21166;-62
2021/03/19 08:42:21;;;;;;;3.62;3.33;;;;;;;3.36;67.84;99044.25;1815497;79;21166;-61
2021/03/19 08:44:49;;;;;;;4.08;3.37;;;;;;;3.44;67.55;99043.21;1780470;80;21374;-63
2021/03/19 08:47:41;;;;;;;4.28;3.80;;;;;;;3.46;67.41;99047.05;1799027;79;21150;-62
2021/03/19 08:50:36;;;;;;;3.47;3.17;;;;;;;3.47;67.69;99048.73;1783395;80;21099;-62
2021/03/19 08:53:12;;;;;;;3.40;3.10;;;;;;;3.56;67.35;99040.01;1798177;79;21122;-64
2021/03/19 08:55:50;;;;;;;3.70;3.10;;;;;;;3.69;66.49;99042.29;1795131;79;21554;-61
2021/03/19 08:58:35;;;;;;;3.67;3.37;;;;;;;3.74;65.16;99038.34;1827069;78;21208;-63
2021/03/19 09:01:07;;;;;;;4.65;4.15;;;;;;;3.76;65.55;99043.87;1814771;79;21139;-64
2021/03/19 09:03:44;;;;;;;4.92;3.52;;;;;;;3.78;66.08;99042.11;1831818;78;21059;-63
2021/03/19 09:06:15;;;;;;;3.47;3.17;;;;;;;3.91;65.90;99041.84;1814148;79;21092;-63
2021/03/19 09:09:07;;;;;;;3.92;3.40;;;;;;;3.99;65.58;99040.81;1831828;78;21645;-62
2021/03/19 09:11:45;;;;;;;3.55;3.25;;;;;;;4.05;64.21;99040.66;1815501;79;21448;-61
2021/03/19 09:14:31;;;;;;;3.58;3.27;;;;;;;4.08;63.03;99036.73;1805501;78;21126;-62
2021/03/19 09:16:59;;;;;;;7.20;6.50;;;;;;;4.11;62.76;99044.39;1783898;80;21448;-62
2021/03/19 09:19:43;;;;;;;5.55;4.05;;;;;;;4.15;63.23;99037.02;1797341;79;21174;-63
2021/03/19 09:22:31;;;;;;;5.35;4.40;;;;;;;4.22;63.64;99039.42;1779518;80;21158;-62
2021/03/19 09:25:21;;;;;;;3.62;3.25;;;;;;;4.30;63.95;99040.95;1797784;79;21380;-62
2021/03/19 09:28:25;;;;;;;3.52;3.22;;;;;;;4.43;62.56;99044.08;1782279;80;21174;-63
2021/03/19 09:31:10;;;;;;;4.25;3.22;;;;;;;4.45;62.32;99042.31;1798088;79;21150;-62
2021/03/19 09:33:53;;;;;;;3.95;3.50;;;;;;;4.45;62.33;99046.19;1778351;80;21056;-62
2021/03/19 09:36:58;;;;;;;3.27;2.95;;;;;;;4.50;60.80;99045.64;1789553;80;21194;-62
2021/03/19 09:40:03;;;;;;;2.83;2.55;;;;;;;4.50;59.94;99050.79;1775183;80;21178;-61
2021/03/19 09:42:55;;;;;;;4.25;2.98;;;;;;;4.50;59.84;99049.06;1789998;80;21503;-61
2021/03/19 09:45:33;;;;;;;3.35;3.00;;;;;;;4.49;59.72;99046.52;1789718;80;21642;-63
2021/03/19 09:48:13;;;;;;;3.22;2.70;;;;;;;4.54;59.87;99044.69;1789708;80;21131;-62
2021/03/19 09:50:55;;;;;;;3.12;2.83;;;;;;;4.62;59.39;99044.48;1789847;80;21119;-62
2021/03/19 09:53:27;;;;;;;5.97;3.20;;;;;;;4.68;59.14;99044.34;1789150;80;21375;-62
2021/03/19 09:56:00;;;;;;;2.92;2.50;;;;;;;4.76;59.01;99045.86;1789775;80;21222;-63
2021/03/19 09:58:46;;;;;;;6.12;2.87;;;;;;;4.80;58.54;99048.74;1761954;80;21478;-60
2021/03/19 10:01:29;;;;;;;4.00;3.10;;;;;;;4.81;58.97;99045.28;1774537;80;21035;-62
2021/03/19 10:04:05;;;;;;;3.80;2.80;;;;;;;4.83;58.12;99049.11;1790008;80;21072;-63
2021/03/19 10:06:46;;;;;;;3.85;2.42;;;;;;;4.82;57.47;99046.98;1760763;80;21115;-61
2021/03/19 10:09:26;;;;;;;25.37;5.42;;;;;;;4.82;57.90;99039.69;1789664;79;21142;-61
2021/03/19 10:12:17;;;;;;;4.08;2.90;;;;;;;4.90;58.48;99044.66;1774525;80;21059;-64
2021/03/19 10:14:49;;;;;;;7.65;3.20;;;;;;;4.98;57.20;99046.17;1774512;80;21147;-61
2021/03/19 10:17:33;;;;;;;5.45;2.65;;;;;;;5.02;58.18;99047.76;1789749;80;21122;-62
2021/03/19 10:20:23;;;;;;;14.13;3.83;;;;;;;5.09;57.08;99050.59;1758538;80;21271;-62
2021/03/19 10:23:10;;;;;;;4.10;2.40;;;;;;;5.06;56.99;99048.09;1786934;78;21126;-62
2021/03/19 10:25:41;;;;;;;3.27;2.60;;;;;;;5.04;56.00;99048.57;1789692;80;21140;-63
2021/03/19 10:28:22;;;;;;;2.90;2.60;;;;;;;4.99;55.62;99049.16;1761205;80;21091;-62
2021/03/19 10:31:11;;;;;;;6.75;2.95;;;;;;;4.90;55.83;99044.66;1789752;80;21166;-64
2021/03/19 10:33:53;;;;;;;3.90;2.55;;;;;;;4.80;55.95;99047.45;1790808;79;21437;-63
2021/03/19 10:36:40;;;;;;;8.50;2.70;;;;;;;4.76;55.92;99043.29;1766453;80;21118;-64
2021/03/19 10:39:31;;;;;;;8.13;3.12;;;;;;;4.74;56.49;99042.92;1792886;79;21488;-62
2021/03/19 10:42:17;;;;;;;13.58;4.30;;;;;;;4.76;56.64;99048.88;1792778;79;21103;-63
2021/03/19 10:45:06;;;;;;;7.08;3.15;;;;;;;4.75;56.71;99036.88;1792806;80;21051;-61
2021/03/19 10:48:04;;;;;;;10.53;3.08;;;;;;;4.77;56.79;99044.13;1792782;80;21270;-61
2021/03/19 10:50:36;;;;;;;5.40;2.92;;;;;;;4.75;56.11;99042.88;1792731;80;21135;-61
2021/03/19 10:53:13;;;;;;;5.40;2.80;;;;;;;4.72;55.54;99037.80;1792697;78;21144;-62
2021/03/19 10:55:40;;;;;;;2.67;2.40;;;;;;;4.76;55.24;99043.29;1792733;79;21132;-61
2021/03/19 10:58:24;;;;;;;13.30;3.00;;;;;;;4.77;54.84;99042.41;1808740;79;21126;-63
2021/03/19 11:00:53;;;;;;;4.27;2.43;;;;;;;4.74;55.46;99037.33;1780503;80;21215;-62
2021/03/19 11:03:44;;;;;;;11.33;2.70;;;;;;;4.77;55.23;99036.41;1805234;78;21544;-65
2021/03/19 11:06:17;;;;;;;3.60;2.33;;;;;;;4.78;55.49;99040.23;1792735;79;21110;-61
2021/03/19 11:08:48;;;;;;;8.80;3.72;;;;;;;4.78;55.63;99041.97;1789830;80;21070;-62
2021/03/19 11:11:19;;;;;;;9.38;2.75;;;;;;;4.78;55.92;99032.51;1742025;80;21079;-62
2021/03/19 11:13:48;;;;;;;10.48;3.42;;;;;;;4.81;55.87;99031.55;1764508;80;21390;-61
2021/03/19 11:16:36;;;;;;;6.17;3.10;;;;;;;4.85;56.26;99033.17;1741226;80;21083;-62
2021/03/19 11:19:13;;;;;;;6.92;3.20;;;;;;;4.93;56.34;99035.57;1792695;80;21117;-62
2021/03/19 11:21:41;;;;;;;3.52;2.72;;;;;;;5.00;56.51;99034.51;1766638;80;21155;-62
2021/03/19 11:24:31;;;;;;;13.03;2.85;;;;;;;4.96;56.02;99035.50;1792837;80;21495;-61
2021/03/19 11:27:03;;;;;;;2.72;2.45;;;;;;;4.90;55.48;99036.49;1792797;80;21365;-62
2021/03/19 11:29:35;;;;;;;3.58;3.05;;;;;;;4.84;55.70;99036.64;1726912;83;21159;-62
2021/03/19 11:32:13;;;;;;;5.15;2.67;;;;;;;4.76;55.74;99041.16;1727673;81;21586;-62
2021/03/19 11:34:47;;;;;;;8.08;2.85;;;;;;;4.72;56.00;99031.36;1739008;81;21151;-63
2021/03/19 11:37:27;;;;;;;13.78;2.92;;;;;;;4.81;56.55;99025.96;1742343;82;26697;-62
2021/03/19 11:40:03;;;;;;;3.95;2.98;;;;;;;4.94;56.91;99029.53;1741734;82;21591;-62
2021/03/19 11:42:49;;;;;;;3.37;3.08;;;;;;;5.00;55.93;99022.47;1740440;81;21155;-62
2021/03/19 11:45:28;;;;;;;7.37;3.20;;;;;;;5.04;55.83;99024.52;1742245;81;21108;-62
2021/03/19 11:48:19;;;;;;;13.98;5.95;;;;;;;5.10;55.79;99026.52;1887939;76;23292;-62
2021/03/19 11:50:53;;;;;;;6.75;3.27;;;;;;;5.16;55.47;99030.67;1775295;80;21005;-63
2021/03/19 11:53:27;;;;;;;6.40;2.70;;;;;;;5.24;54.47;99031.29;1830168;77;21419;-62
2021/03/19 11:55:57;;;;;;;3.15;2.80;;;;;;;5.27;54.20;99027.78;1790790;79;21539;-65
2021/03/19 11:58:30;;;;;;;12.82;3.77;;;;;;;5.27;54.19;99026.05;1809199;79;21175;-63
2021/03/19 12:01:06;;;;;;;16.75;4.28;;;;;;;5.30;54.48;99029.84;1809673;78;21183;-63
2021/03/19 12:03:39;;;;;;;18.35;4.53;;;;;;;5.36;54.35;99025.82;1809859;79;21040;-63
2021/03/19 12:06:10;;;;;;;7.30;3.98;;;;;;;5.44;54.37;99030.30;1758293;80;21207;-63
2021/03/19 12:08:39;;;;;;;5.55;3.33;;;;;;;5.51;53.78;99024.53;1809716;79;21008;-63
2021/03/19 12:11:09;;;;;;;3.10;2.60;;;;;;;5.53;53.79;99023.61;1810342;79;21106;-62
2021/03/19 12:13:36;;;;;;;3.12;2.83;;;;;;;5.54;52.95;99029.17;1758822;81;21076;-64
2021/03/19 12:16:07;;;;;;;10.32;3.50;;;;;;;5.55;53.09;99023.57;1810422;79;21055;-65
2021/03/19 12:18:39;;;;;;;4.65;3.12;;;;;;;5.57;53.41;99023.53;1758219;81;21444;-61
2021/03/19 12:21:08;;;;;;;7.10;3.77;;;;;;;5.63;53.90;99025.47;1809710;79;21222;-64
2021/03/19 12:23:36;;;;;;;4.95;3.08;;;;;;;5.68;52.97;99024.90;1781023;79;21163;-63
2021/03/19 12:26:08;;;;;;;65.10;7.92;;;;;;;5.67;52.40;99023.20;1810386;79;21151;-63
2021/03/19 12:28:39;;;;;;;14.65;6.22;;;;;;;5.69;52.92;99025.75;1758571;81;21143;-62
2021/03/19 12:31:07;;;;;;;10.03;5.28;;;;;;;5.77;52.74;99025.09;1809791;79;21590;-62
2021/03/19 12:33:39;;;;;;;8.75;3.60;;;;;;;5.81;52.75;99021.06;1739481;81;21622;-62
2021/03/19 12:36:08;;;;;;;39.73;5.92;;;;;;;5.81;51.90;99020.22;1810386;79;21116;-62
2021/03/19 12:38:35;;;;;;;7.40;3.55;;;;;;;5.78;52.53;99021.62;1758871;81;21052;-62
2021/03/19 12:41:04;;;;;;;2.87;2.60;;;;;;;5.81;52.22;99024.94;1810315;79;21047;-62